Thunder radar more information blitzortung!


Radar de pluja more information rain snow radar


Visita la nostra xarxa de llocs de meteo:

Template documentation
and downloads

And another site



No particular awareness of the weather is required.    There are no Weather-warnings

Pagina Historial Weather Underground text

Diari Resum Agost 16, 2017 Unitats:  Tant    Imperial   Mètric
« Previous Dia
SegĂźent Dia »
Diari Setmana Mensual Anual Personalitzada
  Maxima: Minima: Media:
Temperatura: 88.5 °F /  31.4 °C 69.1 °F /  20.6 °C 79 °F /  26.1 °C
Punt de rosada: 66.7 °F /  19.3 °C 58.3 °F /  14.6 °C 63 °F /  17.2 °C
Humitat: 80 % 43 % 59 %
Wind Speed: 13.8 mph /  22.2 km/h - 4.5 mph /  7.2 km/h
RĂ fegues de vent: 13.8 mph /  22.2 km/h - -
Vent:- - East
Pression baro: 30.1 in /  1018.8 hPa 30 in /  1014.8 hPa -
Precipitacions: 0 in /  0.0 mm    
Historical Graphs
 
 
Dades de taula per Agost 16, 2017
Temps Temperatura Punt de rosada Pression baro Vent Wind Speed RĂ fegues de vent Humitat Rainfall Rate (Hourly)
00:04 74.5 °F /  23.6 °C 63.1 °F /  17.3 °C 30 in /  1016.8 hPa NNE 3.5 mph /  5.6 km/h 3.5 mph /  5.6 km/h 68 % 0 in /  0.0 mm
00:05 71.6 °F /  22.0 °C 64.4 °F /  18.0 °C 30.1 in /  1017.8 hPa NE 1 mph /  1.6 km/h 2 mph /  3.2 km/h 78 % 0 in /  0.0 mm
00:09 74.3 °F /  23.5 °C 63.1 °F /  17.3 °C 30 in /  1016.8 hPa NE 3.5 mph /  5.6 km/h 3.5 mph /  5.6 km/h 68 % 0 in /  0.0 mm
00:14 74.3 °F /  23.5 °C 63.1 °F /  17.3 °C 30.1 in /  1017.8 hPa South 1.2 mph /  1.9 km/h   68 % 0 in /  0.0 mm
00:15 71.6 °F /  22.0 °C 64.4 °F /  18.0 °C 30.1 in /  1017.8 hPa NNE 1 mph /  1.6 km/h 2 mph /  3.2 km/h 78 % 0 in /  0.0 mm
00:19 74.1 °F /  23.4 °C 63 °F /  17.2 °C 30.1 in /  1017.8 hPa Calm     68 % 0 in /  0.0 mm
00:24 73.9 °F /  23.3 °C 62.8 °F /  17.1 °C 30.1 in /  1017.8 hPa NNE 2.3 mph /  3.7 km/h 2.3 mph /  3.7 km/h 68 % 0 in /  0.0 mm
00:25 71.6 °F /  22.0 °C 64.4 °F /  18.0 °C 30.1 in /  1017.8 hPa NNE 2 mph /  3.2 km/h 3 mph /  4.8 km/h 78 % 0 in /  0.0 mm
00:29 73.8 °F /  23.2 °C 62.4 °F /  16.9 °C 30.1 in /  1017.8 hPa NW 1.2 mph /  1.9 km/h   68 % 0 in /  0.0 mm
00:34 73.6 °F /  23.1 °C 62.4 °F /  16.9 °C 30.1 in /  1017.8 hPa NE 1.2 mph /  1.9 km/h   68 % 0 in /  0.0 mm
00:35 71.6 °F /  22.0 °C 64.4 °F /  18.0 °C 30.1 in /  1017.8 hPa NNE 2 mph /  3.2 km/h 3 mph /  4.8 km/h 78 % 0 in /  0.0 mm
00:39 73.6 °F /  23.1 °C 62.4 °F /  16.9 °C 30.1 in /  1017.8 hPa NE 1.2 mph /  1.9 km/h   68 % 0 in /  0.0 mm
00:44 73.4 °F /  23.0 °C 62.6 °F /  17.0 °C 30.1 in /  1017.8 hPa NNE 2.4 mph /  3.9 km/h 2.4 mph /  3.9 km/h 69 % 0 in /  0.0 mm
00:45 71.6 °F /  22.0 °C 64.4 °F /  18.0 °C 30.1 in /  1017.8 hPa NE 2 mph /  3.2 km/h 3 mph /  4.8 km/h 78 % 0 in /  0.0 mm
00:49 73.4 °F /  23.0 °C 62.6 °F /  17.0 °C 30.1 in /  1017.8 hPa NNE 2.6 mph /  4.2 km/h 2.6 mph /  4.2 km/h 69 % 0 in /  0.0 mm
00:54 73.4 °F /  23.0 °C 62.6 °F /  17.0 °C 30.1 in /  1017.8 hPa ENE 2.9 mph /  4.7 km/h 2.9 mph /  4.7 km/h 69 % 0 in /  0.0 mm
00:55 71.6 °F /  22.0 °C 64.8 °F /  18.2 °C 30.1 in /  1017.8 hPa NNE 3 mph /  4.8 km/h 3 mph /  4.8 km/h 79 % 0 in /  0.0 mm
00:59 73.2 °F /  22.9 °C 62.4 °F /  16.9 °C 30.1 in /  1017.8 hPa ENE 3.5 mph /  5.6 km/h 3.5 mph /  5.6 km/h 69 % 0 in /  0.0 mm
01:04 73 °F /  22.8 °C 62.2 °F /  16.8 °C 30.1 in /  1017.8 hPa NE 2.6 mph /  4.2 km/h 2.6 mph /  4.2 km/h 69 % 0 in /  0.0 mm
01:05 71.6 °F /  22.0 °C 64.8 °F /  18.2 °C 30.1 in /  1018.8 hPa NE 2 mph /  3.2 km/h 3 mph /  4.8 km/h 79 % 0 in /  0.0 mm
01:09 72.9 °F /  22.7 °C 62.1 °F /  16.7 °C 30.1 in /  1017.8 hPa Calm     69 % 0 in /  0.0 mm
01:14 72.7 °F /  22.6 °C 62.2 °F /  16.8 °C 30.1 in /  1017.8 hPa Calm     70 % 0 in /  0.0 mm
01:15 71.6 °F /  22.0 °C 64.8 °F /  18.2 °C 30.1 in /  1017.8 hPa NE 2 mph /  3.2 km/h 3 mph /  4.8 km/h 79 % 0 in /  0.0 mm
01:19 72.3 °F /  22.4 °C 62.4 °F /  16.9 °C 30.1 in /  1017.8 hPa NNE 1.2 mph /  1.9 km/h 1.2 mph /  1.9 km/h 71 % 0 in /  0.0 mm
01:24 72.3 °F /  22.4 °C 62.4 °F /  16.9 °C 30.1 in /  1017.8 hPa NNW 1.2 mph /  1.9 km/h 1.2 mph /  1.9 km/h 71 % 0 in /  0.0 mm
01:25 71.4 °F /  21.9 °C 64.6 °F /  18.1 °C 30.1 in /  1017.8 hPa NNE 1 mph /  1.6 km/h 3 mph /  4.8 km/h 79 % 0 in /  0.0 mm
01:29 72.1 °F /  22.3 °C 62.2 °F /  16.8 °C 30.1 in /  1017.8 hPa NNW 1.2 mph /  1.9 km/h   71 % 0 in /  0.0 mm
01:35 71.1 °F /  21.7 °C 64.2 °F /  17.9 °C 30.1 in /  1017.8 hPa NNE 2 mph /  3.2 km/h 2 mph /  3.2 km/h 79 % 0 in /  0.0 mm
01:45 70.9 °F /  21.6 °C 64 °F /  17.8 °C 30.1 in /  1017.8 hPa NNE 1 mph /  1.6 km/h 2 mph /  3.2 km/h 79 % 0 in /  0.0 mm
01:55 70.7 °F /  21.5 °C 63.9 °F /  17.7 °C 30.1 in /  1017.8 hPa NNE 1 mph /  1.6 km/h 3 mph /  4.8 km/h 79 % 0 in /  0.0 mm
02:05 70.3 °F /  21.3 °C 63.5 °F /  17.5 °C 30.1 in /  1017.8 hPa NNE 1 mph /  1.6 km/h 3 mph /  4.8 km/h 79 % 0 in /  0.0 mm
02:15 70.2 °F /  21.2 °C 63.3 °F /  17.4 °C 30.1 in /  1017.8 hPa NE 1 mph /  1.6 km/h 2 mph /  3.2 km/h 79 % 0 in /  0.0 mm
02:25 69.8 °F /  21.0 °C 63 °F /  17.2 °C 30.1 in /  1017.8 hPa NE 1 mph /  1.6 km/h 3 mph /  4.8 km/h 79 % 0 in /  0.0 mm
02:35 69.6 °F /  20.9 °C 63.1 °F /  17.3 °C 30.1 in /  1017.8 hPa NNE 1 mph /  1.6 km/h 2 mph /  3.2 km/h 80 % 0 in /  0.0 mm
02:50 69.3 °F /  20.7 °C 62.8 °F /  17.1 °C 30.1 in /  1017.8 hPa NNE 1 mph /  1.6 km/h 3 mph /  4.8 km/h 80 % 0 in /  0.0 mm
03:00 69.1 °F /  20.6 °C 62.2 °F /  16.8 °C 30.1 in /  1017.8 hPa North 1 mph /  1.6 km/h 2 mph /  3.2 km/h 79 % 0 in /  0.0 mm
03:10 69.1 °F /  20.6 °C 62.6 °F /  17.0 °C 30.1 in /  1017.8 hPa Calm   2 mph /  3.2 km/h 80 % 0 in /  0.0 mm
03:20 69.1 °F /  20.6 °C 62.2 °F /  16.8 °C 30.1 in /  1017.8 hPa North 2 mph /  3.2 km/h 3 mph /  4.8 km/h 79 % 0 in /  0.0 mm
03:30 69.1 °F /  20.6 °C 62.2 °F /  16.8 °C 30.1 in /  1017.8 hPa NE 1 mph /  1.6 km/h 2 mph /  3.2 km/h 79 % 0 in /  0.0 mm
03:40 69.1 °F /  20.6 °C 62.6 °F /  17.0 °C 30.1 in /  1017.8 hPa NNE 1 mph /  1.6 km/h 3 mph /  4.8 km/h 80 % 0 in /  0.0 mm
03:50 69.3 °F /  20.7 °C 62.8 °F /  17.1 °C 30 in /  1016.8 hPa NNE 1 mph /  1.6 km/h 3 mph /  4.8 km/h 80 % 0 in /  0.0 mm
04:00 69.8 °F /  21.0 °C 62.6 °F /  17.0 °C 30.1 in /  1017.8 hPa NNE 1 mph /  1.6 km/h 1 mph /  1.6 km/h 78 % 0 in /  0.0 mm
04:10 70.2 °F /  21.2 °C 63 °F /  17.2 °C 30.1 in /  1017.8 hPa NE 2 mph /  3.2 km/h 2 mph /  3.2 km/h 78 % 0 in /  0.0 mm
04:20 70.7 °F /  21.5 °C 63.1 °F /  17.3 °C 30 in /  1016.8 hPa NE 3 mph /  4.8 km/h 3 mph /  4.8 km/h 77 % 0 in /  0.0 mm
04:30 71.6 °F /  22.0 °C 64 °F /  17.8 °C 30 in /  1016.8 hPa NE 3 mph /  4.8 km/h 3 mph /  4.8 km/h 77 % 0 in /  0.0 mm
04:40 71.8 °F /  22.1 °C 63.9 °F /  17.7 °C 30 in /  1016.8 hPa NE 3 mph /  4.8 km/h 4 mph /  6.4 km/h 76 % 0 in /  0.0 mm
04:50 72 °F /  22.2 °C 64 °F /  17.8 °C 30.1 in /  1017.8 hPa NE 3 mph /  4.8 km/h 4 mph /  6.4 km/h 76 % 0 in /  0.0 mm
05:00 72.9 °F /  22.7 °C 64.6 °F /  18.1 °C 30.1 in /  1017.8 hPa NE 2 mph /  3.2 km/h 3 mph /  4.8 km/h 75 % 0 in /  0.0 mm
05:10 73.8 °F /  23.2 °C 64.6 °F /  18.1 °C 30.1 in /  1017.8 hPa NE 3 mph /  4.8 km/h 4 mph /  6.4 km/h 73 % 0 in /  0.0 mm
05:20 74.1 °F /  23.4 °C 64.9 °F /  18.3 °C 30.1 in /  1017.8 hPa NNE 1 mph /  1.6 km/h 3 mph /  4.8 km/h 73 % 0 in /  0.0 mm
05:30 74.7 °F /  23.7 °C 64.9 °F /  18.3 °C 30.1 in /  1017.8 hPa NE 2 mph /  3.2 km/h 3 mph /  4.8 km/h 72 % 0 in /  0.0 mm
05:40 74.8 °F /  23.8 °C 64.8 °F /  18.2 °C 30.1 in /  1017.8 hPa NNE 1 mph /  1.6 km/h 4 mph /  6.4 km/h 71 % 0 in /  0.0 mm
05:50 74.8 °F /  23.8 °C 64.8 °F /  18.2 °C 30.1 in /  1017.8 hPa NE 3 mph /  4.8 km/h 4 mph /  6.4 km/h 71 % 0 in /  0.0 mm
06:00 76.8 °F /  24.9 °C 65.8 °F /  18.8 °C 30.1 in /  1017.8 hPa NNE 2 mph /  3.2 km/h 4 mph /  6.4 km/h 69 % 0 in /  0.0 mm
11:06 77.5 °F /  25.3 °C 64.8 °F /  18.2 °C 30.1 in /  1017.8 hPa NE 1.2 mph /  1.9 km/h 1.4 mph /  2.3 km/h 65 % 0 in /  0.0 mm
11:07 77.5 °F /  25.3 °C 64.8 °F /  18.2 °C 30.1 in /  1017.8 hPa NNE 3.5 mph /  5.6 km/h 3.5 mph /  5.6 km/h 65 % 0 in /  0.0 mm
11:12 77.7 °F /  25.4 °C 64.6 °F /  18.1 °C 30.1 in /  1017.8 hPa ENE 4.6 mph /  7.4 km/h 4.6 mph /  7.4 km/h 64 % 0 in /  0.0 mm
11:17 77.7 °F /  25.4 °C 64.6 °F /  18.1 °C 30.1 in /  1017.8 hPa ESE 1.6 mph /  2.6 km/h 1.6 mph /  2.6 km/h 64 % 0 in /  0.0 mm
11:22 78.1 °F /  25.6 °C 64.9 °F /  18.3 °C 30.1 in /  1017.8 hPa ENE 3.1 mph /  5.0 km/h 3.1 mph /  5.0 km/h 64 % 0 in /  0.0 mm
11:27 78.8 °F /  26.0 °C 65.7 °F /  18.7 °C 30.1 in /  1017.8 hPa SE 3.5 mph /  5.6 km/h 3.5 mph /  5.6 km/h 64 % 0 in /  0.0 mm
11:32 79.3 °F /  26.3 °C 65.7 °F /  18.7 °C 30.1 in /  1017.8 hPa SW 2.4 mph /  3.9 km/h 2.4 mph /  3.9 km/h 63 % 0 in /  0.0 mm
11:37 79.7 °F /  26.5 °C 65.5 °F /  18.6 °C 30.1 in /  1017.8 hPa NW 2.3 mph /  3.7 km/h 2.3 mph /  3.7 km/h 62 % 0 in /  0.0 mm
11:42 80.4 °F /  26.9 °C 66.2 °F /  19.0 °C 30.1 in /  1017.8 hPa West 1.4 mph /  2.3 km/h   62 % 0 in /  0.0 mm
11:47 80.6 °F /  27.0 °C 65.5 °F /  18.6 °C 30.1 in /  1017.8 hPa WSW 1.2 mph /  1.9 km/h   60 % 0 in /  0.0 mm
11:52 80.6 °F /  27.0 °C 65.5 °F /  18.6 °C 30.1 in /  1017.8 hPa NNE 1.2 mph /  1.9 km/h   60 % 0 in /  0.0 mm
11:57 81 °F /  27.2 °C 65.3 °F /  18.5 °C 30.1 in /  1017.8 hPa WSW 2.3 mph /  3.7 km/h 2.3 mph /  3.7 km/h 59 % 0 in /  0.0 mm
11:58 81.3 °F /  27.4 °C 66 °F /  18.9 °C 30.1 in /  1017.8 hPa NE 2 mph /  3.2 km/h 2 mph /  3.2 km/h 60 % 0 in /  0.0 mm
12:03 80.8 °F /  27.1 °C 65.1 °F /  18.4 °C 30.1 in /  1017.8 hPa NE 4.6 mph /  7.4 km/h 4.6 mph /  7.4 km/h 59 % 0 in /  0.0 mm
12:08 80.8 °F /  27.1 °C 64.6 °F /  18.1 °C 30.1 in /  1017.8 hPa South 2.3 mph /  3.7 km/h 2.3 mph /  3.7 km/h 58 % 0 in /  0.0 mm
12:13 81.9 °F /  27.7 °C 66 °F /  18.9 °C 30 in /  1016.8 hPa North 2.3 mph /  3.7 km/h 2.3 mph /  3.7 km/h 59 % 0 in /  0.0 mm
12:18 81.3 °F /  27.4 °C 65.1 °F /  18.4 °C 30 in /  1016.8 hPa ENE 4.6 mph /  7.4 km/h 4.6 mph /  7.4 km/h 58 % 0 in /  0.0 mm
12:23 80.8 °F /  27.1 °C 64.6 °F /  18.1 °C 30 in /  1016.8 hPa ENE 3.5 mph /  5.6 km/h 3.5 mph /  5.6 km/h 58 % 0 in /  0.0 mm
12:28 81.3 °F /  27.4 °C 65.1 °F /  18.4 °C 30.1 in /  1017.8 hPa WSW 2.4 mph /  3.9 km/h 2.4 mph /  3.9 km/h 58 % 0 in /  0.0 mm
12:33 81.9 °F /  27.7 °C 65.7 °F /  18.7 °C 30.1 in /  1017.8 hPa NNE 2.3 mph /  3.7 km/h 2.3 mph /  3.7 km/h 58 % 0 in /  0.0 mm
12:38 82 °F /  27.8 °C 65.8 °F /  18.8 °C 30.1 in /  1017.8 hPa ENE 3.5 mph /  5.6 km/h 3.5 mph /  5.6 km/h 58 % 0 in /  0.0 mm
12:43 82 °F /  27.8 °C 65.8 °F /  18.8 °C 30.1 in /  1017.8 hPa East 4.6 mph /  7.4 km/h 4.6 mph /  7.4 km/h 58 % 0 in /  0.0 mm
12:48 82.4 °F /  28.0 °C 65.1 °F /  18.4 °C 30.1 in /  1017.8 hPa ESE 3.5 mph /  5.6 km/h 3.5 mph /  5.6 km/h 56 % 0 in /  0.0 mm
12:53 82.8 °F /  28.2 °C 65.5 °F /  18.6 °C 30.1 in /  1017.8 hPa South 5.8 mph /  9.3 km/h 5.8 mph /  9.3 km/h 56 % 0 in /  0.0 mm
12:58 82.8 °F /  28.2 °C 64.9 °F /  18.3 °C 30.1 in /  1017.8 hPa ENE 5.8 mph /  9.3 km/h 5.8 mph /  9.3 km/h 55 % 0 in /  0.0 mm
13:03 83.3 °F /  28.5 °C 65.5 °F /  18.6 °C 30.1 in /  1017.8 hPa ESE 4.6 mph /  7.4 km/h 4.6 mph /  7.4 km/h 55 % 0 in /  0.0 mm
13:08 84.6 °F /  29.2 °C 66 °F /  18.9 °C 30.1 in /  1017.8 hPa SSE 5.8 mph /  9.3 km/h 5.8 mph /  9.3 km/h 54 % 0 in /  0.0 mm
13:13 85.1 °F /  29.5 °C 66 °F /  18.9 °C 30.1 in /  1017.8 hPa NNE 3.5 mph /  5.6 km/h 3.5 mph /  5.6 km/h 53 % 0 in /  0.0 mm
13:18 84.7 °F /  29.3 °C 66.4 °F /  19.1 °C 30.1 in /  1017.8 hPa NE 2.3 mph /  3.7 km/h 2.3 mph /  3.7 km/h 54 % 0 in /  0.0 mm
13:23 85.1 °F /  29.5 °C 66 °F /  18.9 °C 30.1 in /  1017.8 hPa ESE 4 mph /  6.4 km/h 4 mph /  6.4 km/h 53 % 0 in /  0.0 mm
13:28 85.1 °F /  29.5 °C 65.5 °F /  18.6 °C 30 in /  1016.8 hPa SSE 4.6 mph /  7.4 km/h 4.6 mph /  7.4 km/h 52 % 0 in /  0.0 mm
13:33 86.4 °F /  30.2 °C 66.7 °F /  19.3 °C 30 in /  1016.8 hPa SE 3.5 mph /  5.6 km/h 3.5 mph /  5.6 km/h 52 % 0 in /  0.0 mm
13:38 85.8 °F /  29.9 °C 64.9 °F /  18.3 °C 30 in /  1016.8 hPa SSE 4.6 mph /  7.4 km/h 4.6 mph /  7.4 km/h 50 % 0 in /  0.0 mm
13:43 85.8 °F /  29.9 °C 65.7 °F /  18.7 °C 30 in /  1016.8 hPa SE 5.8 mph /  9.3 km/h 5.8 mph /  9.3 km/h 51 % 0 in /  0.0 mm
13:48 86.2 °F /  30.1 °C 65.5 °F /  18.6 °C 30 in /  1016.8 hPa WSW 2.3 mph /  3.7 km/h 2.3 mph /  3.7 km/h 50 % 0 in /  0.0 mm
13:53 87.1 °F /  30.6 °C 66.2 °F /  19.0 °C 30 in /  1016.8 hPa ESE 4.6 mph /  7.4 km/h 4.6 mph /  7.4 km/h 50 % 0 in /  0.0 mm
13:58 87.6 °F /  30.9 °C 66.7 °F /  19.3 °C 30 in /  1016.8 hPa ESE 5.9 mph /  9.5 km/h 5.9 mph /  9.5 km/h 50 % 0 in /  0.0 mm
14:03 86.2 °F /  30.1 °C 64.2 °F /  17.9 °C 30 in /  1016.8 hPa NNE 4.6 mph /  7.4 km/h 4.6 mph /  7.4 km/h 48 % 0 in /  0.0 mm
14:08 86.2 °F /  30.1 °C 64.8 °F /  18.2 °C 30 in /  1016.8 hPa ESE 3.5 mph /  5.6 km/h 3.5 mph /  5.6 km/h 49 % 0 in /  0.0 mm
14:13 86.9 °F /  30.5 °C 65.5 °F /  18.6 °C 30 in /  1015.8 hPa ESE 4.3 mph /  6.9 km/h 4.3 mph /  6.9 km/h 49 % 0 in /  0.0 mm
14:18 86.7 °F /  30.4 °C 64.8 °F /  18.2 °C 30 in /  1015.8 hPa NNE 8.1 mph /  13.0 km/h 8.1 mph /  13.0 km/h 48 % 0 in /  0.0 mm
14:23 86.7 °F /  30.4 °C 64.8 °F /  18.2 °C 30 in /  1015.8 hPa North 6.9 mph /  11.1 km/h 6.9 mph /  11.1 km/h 48 % 0 in /  0.0 mm
14:28 87.3 °F /  30.7 °C 64.6 °F /  18.1 °C 30 in /  1015.8 hPa East 5.4 mph /  8.7 km/h 5.4 mph /  8.7 km/h 47 % 0 in /  0.0 mm
14:33 87.8 °F /  31.0 °C 64.4 °F /  18.0 °C 30 in /  1015.8 hPa East 5.8 mph /  9.3 km/h 5.8 mph /  9.3 km/h 46 % 0 in /  0.0 mm
14:38 87.4 °F /  30.8 °C 64 °F /  17.8 °C 30 in /  1015.8 hPa ESE 9.2 mph /  14.8 km/h 9.2 mph /  14.8 km/h 46 % 0 in /  0.0 mm
14:43 88.2 °F /  31.2 °C 64 °F /  17.8 °C 30 in /  1015.8 hPa SE 5.8 mph /  9.3 km/h 5.8 mph /  9.3 km/h 45 % 0 in /  0.0 mm
14:48 88.2 °F /  31.2 °C 64 °F /  17.8 °C 30 in /  1015.8 hPa SE 6.9 mph /  11.1 km/h 6.9 mph /  11.1 km/h 45 % 0 in /  0.0 mm
14:53 87.6 °F /  30.9 °C 63.7 °F /  17.6 °C 30 in /  1015.8 hPa SE 8.5 mph /  13.7 km/h 8.5 mph /  13.7 km/h 45 % 0 in /  0.0 mm
14:58 87.8 °F /  31.0 °C 63.9 °F /  17.7 °C 30 in /  1015.8 hPa ENE 4.6 mph /  7.4 km/h 4.6 mph /  7.4 km/h 45 % 0 in /  0.0 mm
15:03 87.3 °F /  30.7 °C 63.3 °F /  17.4 °C 30 in /  1015.8 hPa NNE 3.5 mph /  5.6 km/h 3.5 mph /  5.6 km/h 45 % 0 in /  0.0 mm
15:08 87.8 °F /  31.0 °C 63.1 °F /  17.3 °C 30 in /  1015.8 hPa ESE 5.8 mph /  9.3 km/h 5.8 mph /  9.3 km/h 44 % 0 in /  0.0 mm
15:13 87.8 °F /  31.0 °C 63.9 °F /  17.7 °C 30 in /  1015.8 hPa South 4.6 mph /  7.4 km/h 4.6 mph /  7.4 km/h 45 % 0 in /  0.0 mm
15:18 87.8 °F /  31.0 °C 63.1 °F /  17.3 °C 30 in /  1015.8 hPa SSE 5.8 mph /  9.3 km/h 5.8 mph /  9.3 km/h 44 % 0 in /  0.0 mm
15:23 87.6 °F /  30.9 °C 63.7 °F /  17.6 °C 30 in /  1015.8 hPa East 8.1 mph /  13.0 km/h 8.1 mph /  13.0 km/h 45 % 0 in /  0.0 mm
15:28 88.2 °F /  31.2 °C 63.5 °F /  17.5 °C 30 in /  1016.8 hPa East 6.9 mph /  11.1 km/h 6.9 mph /  11.1 km/h 44 % 0 in /  0.0 mm
15:33 88 °F /  31.1 °C 62.8 °F /  17.1 °C 30 in /  1016.8 hPa SSE 9.2 mph /  14.8 km/h 9.2 mph /  14.8 km/h 43 % 0 in /  0.0 mm
15:35 88.3 °F /  31.3 °C 63 °F /  17.2 °C 30 in /  1016.8 hPa SSW 8.1 mph /  13.0 km/h 8.1 mph /  13.0 km/h 43 % 0 in /  0.0 mm
15:40 88.3 °F /  31.3 °C 63 °F /  17.2 °C 30 in /  1016.8 hPa East 9.2 mph /  14.8 km/h 9.2 mph /  14.8 km/h 43 % 0 in /  0.0 mm
15:45 88.5 °F /  31.4 °C 63.9 °F /  17.7 °C 30 in /  1015.8 hPa ESE 5.8 mph /  9.3 km/h 5.8 mph /  9.3 km/h 44 % 0 in /  0.0 mm
15:50 88.2 °F /  31.2 °C 62.8 °F /  17.1 °C 30 in /  1015.8 hPa SE 8.1 mph /  13.0 km/h 8.1 mph /  13.0 km/h 43 % 0 in /  0.0 mm
15:55 88.2 °F /  31.2 °C 62.8 °F /  17.1 °C 30 in /  1015.8 hPa ESE 9.2 mph /  14.8 km/h 9.2 mph /  14.8 km/h 43 % 0 in /  0.0 mm
16:05 88 °F /  31.1 °C 62.8 °F /  17.1 °C 30 in /  1015.8 hPa ENE 8.1 mph /  13.0 km/h 8.1 mph /  13.0 km/h 43 % 0 in /  0.0 mm
16:10 87.8 °F /  31.0 °C 63.1 °F /  17.3 °C 30 in /  1015.8 hPa ENE 5.8 mph /  9.3 km/h 5.8 mph /  9.3 km/h 44 % 0 in /  0.0 mm
16:15 87.8 °F /  31.0 °C 63.1 °F /  17.3 °C 30 in /  1015.8 hPa East 5.8 mph /  9.3 km/h 5.8 mph /  9.3 km/h 44 % 0 in /  0.0 mm
16:20 88.2 °F /  31.2 °C 63.5 °F /  17.5 °C 30 in /  1015.8 hPa ESE 6.9 mph /  11.1 km/h 6.9 mph /  11.1 km/h 44 % 0 in /  0.0 mm
16:25 87.6 °F /  30.9 °C 63 °F /  17.2 °C 30 in /  1015.8 hPa ESE 11.5 mph /  18.5 km/h 11.5 mph /  18.5 km/h 44 % 0 in /  0.0 mm
16:30 87.6 °F /  30.9 °C 63.7 °F /  17.6 °C 30 in /  1015.8 hPa ENE 6.9 mph /  11.1 km/h 6.9 mph /  11.1 km/h 45 % 0 in /  0.0 mm
16:35 87.6 °F /  30.9 °C 63.7 °F /  17.6 °C 30 in /  1015.8 hPa SE 9.2 mph /  14.8 km/h 9.2 mph /  14.8 km/h 45 % 0 in /  0.0 mm
16:40 87.4 °F /  30.8 °C 63.5 °F /  17.5 °C 30 in /  1015.8 hPa ESE 12.7 mph /  20.4 km/h 12.7 mph /  20.4 km/h 45 % 0 in /  0.0 mm
16:45 87.1 °F /  30.6 °C 63.1 °F /  17.3 °C 30 in /  1015.8 hPa ESE 10.9 mph /  17.5 km/h 10.9 mph /  17.5 km/h 45 % 0 in /  0.0 mm
16:50 87.1 °F /  30.6 °C 63.1 °F /  17.3 °C 30 in /  1015.8 hPa East 10.4 mph /  16.7 km/h 10.4 mph /  16.7 km/h 45 % 0 in /  0.0 mm
16:55 87.3 °F /  30.7 °C 63.3 °F /  17.4 °C 30 in /  1015.8 hPa ESE 8.1 mph /  13.0 km/h 8.1 mph /  13.0 km/h 45 % 0 in /  0.0 mm
17:00 86.9 °F /  30.5 °C 63 °F /  17.2 °C 30 in /  1015.8 hPa ENE 10.4 mph /  16.7 km/h 10.4 mph /  16.7 km/h 45 % 0 in /  0.0 mm
17:05 86.5 °F /  30.3 °C 62.8 °F /  17.1 °C 30 in /  1015.8 hPa ESE 10.4 mph /  16.7 km/h 10.4 mph /  16.7 km/h 45 % 0 in /  0.0 mm
17:10 86 °F /  30.0 °C 62.8 °F /  17.1 °C 30 in /  1015.8 hPa ESE 8.1 mph /  13.0 km/h 8.1 mph /  13.0 km/h 46 % 0 in /  0.0 mm
17:15 86.2 °F /  30.1 °C 63 °F /  17.2 °C 30 in /  1015.8 hPa East 5.8 mph /  9.3 km/h 5.8 mph /  9.3 km/h 46 % 0 in /  0.0 mm
17:20 86.5 °F /  30.3 °C 63.3 °F /  17.4 °C 30 in /  1015.8 hPa East 10.4 mph /  16.7 km/h 10.4 mph /  16.7 km/h 46 % 0 in /  0.0 mm
17:25 85.8 °F /  29.9 °C 62.6 °F /  17.0 °C 30 in /  1015.8 hPa East 11.5 mph /  18.5 km/h 11.5 mph /  18.5 km/h 46 % 0 in /  0.0 mm
17:30 85.5 °F /  29.7 °C 63 °F /  17.2 °C 30 in /  1015.8 hPa ENE 10.4 mph /  16.7 km/h 10.4 mph /  16.7 km/h 47 % 0 in /  0.0 mm
17:35 85.3 °F /  29.6 °C 62.8 °F /  17.1 °C 30 in /  1015.8 hPa ESE 10.4 mph /  16.7 km/h 10.4 mph /  16.7 km/h 47 % 0 in /  0.0 mm
17:40 84.9 °F /  29.4 °C 62.4 °F /  16.9 °C 30 in /  1015.8 hPa East 11.5 mph /  18.5 km/h 11.5 mph /  18.5 km/h 47 % 0 in /  0.0 mm
17:45 84.6 °F /  29.2 °C 62.8 °F /  17.1 °C 30 in /  1015.8 hPa ESE 9.2 mph /  14.8 km/h 9.2 mph /  14.8 km/h 48 % 0 in /  0.0 mm
17:50 84.6 °F /  29.2 °C 62.8 °F /  17.1 °C 30 in /  1015.8 hPa ESE 9.8 mph /  15.8 km/h 9.8 mph /  15.8 km/h 48 % 0 in /  0.0 mm
17:55 84.6 °F /  29.2 °C 62.8 °F /  17.1 °C 30 in /  1015.8 hPa East 10.4 mph /  16.7 km/h 10.4 mph /  16.7 km/h 48 % 0 in /  0.0 mm
18:00 84.2 °F /  29.0 °C 62.4 °F /  16.9 °C 30 in /  1015.8 hPa SE 10.4 mph /  16.7 km/h 10.4 mph /  16.7 km/h 48 % 0 in /  0.0 mm
18:05 84 °F /  28.9 °C 62.8 °F /  17.1 °C 30 in /  1015.8 hPa ESE 8.1 mph /  13.0 km/h 8.1 mph /  13.0 km/h 49 % 0 in /  0.0 mm
18:10 83.8 °F /  28.8 °C 62.6 °F /  17.0 °C 30 in /  1015.8 hPa NE 8.1 mph /  13.0 km/h 8.1 mph /  13.0 km/h 49 % 0 in /  0.0 mm
18:15 83.5 °F /  28.6 °C 62.2 °F /  16.8 °C 30 in /  1014.8 hPa ENE 11.5 mph /  18.5 km/h 11.5 mph /  18.5 km/h 49 % 0 in /  0.0 mm
18:20 83.3 °F /  28.5 °C 62.8 °F /  17.1 °C 30 in /  1014.8 hPa ESE 10.9 mph /  17.5 km/h 10.9 mph /  17.5 km/h 50 % 0 in /  0.0 mm
18:25 83.1 °F /  28.4 °C 62.6 °F /  17.0 °C 30 in /  1014.8 hPa ESE 9.7 mph /  15.6 km/h 9.7 mph /  15.6 km/h 50 % 0 in /  0.0 mm
18:30 82.6 °F /  28.1 °C 62.1 °F /  16.7 °C 30 in /  1014.8 hPa East 13.8 mph /  22.2 km/h 13.8 mph /  22.2 km/h 50 % 0 in /  0.0 mm
18:35 82.4 °F /  28.0 °C 61.9 °F /  16.6 °C 30 in /  1014.8 hPa ESE 9.2 mph /  14.8 km/h 9.2 mph /  14.8 km/h 50 % 0 in /  0.0 mm
18:40 82 °F /  27.8 °C 61.5 °F /  16.4 °C 30 in /  1014.8 hPa ESE 11.5 mph /  18.5 km/h 11.5 mph /  18.5 km/h 50 % 0 in /  0.0 mm
18:45 82 °F /  27.8 °C 61.5 °F /  16.4 °C 30 in /  1015.8 hPa SE 10 mph /  16.1 km/h 10 mph /  16.1 km/h 50 % 0 in /  0.0 mm
18:50 82 °F /  27.8 °C 61.5 °F /  16.4 °C 30 in /  1015.8 hPa ESE 8.1 mph /  13.0 km/h 8.1 mph /  13.0 km/h 50 % 0 in /  0.0 mm
18:55 81.5 °F /  27.5 °C 61.2 °F /  16.2 °C 30 in /  1015.8 hPa ESE 8.1 mph /  13.0 km/h 8.1 mph /  13.0 km/h 50 % 0 in /  0.0 mm
19:00 81.3 °F /  27.4 °C 61 °F /  16.1 °C 30 in /  1015.8 hPa ENE 9.2 mph /  14.8 km/h 9.2 mph /  14.8 km/h 50 % 0 in /  0.0 mm
19:05 81 °F /  27.2 °C 60.6 °F /  15.9 °C 30 in /  1015.8 hPa SE 6.9 mph /  11.1 km/h 6.9 mph /  11.1 km/h 50 % 0 in /  0.0 mm
19:10 80.8 °F /  27.1 °C 61 °F /  16.1 °C 30 in /  1015.8 hPa ESE 8.1 mph /  13.0 km/h 8.1 mph /  13.0 km/h 51 % 0 in /  0.0 mm
19:15 80.8 °F /  27.1 °C 61 °F /  16.1 °C 30 in /  1015.8 hPa East 6.9 mph /  11.1 km/h 6.9 mph /  11.1 km/h 51 % 0 in /  0.0 mm
19:20 80.1 °F /  26.7 °C 61.3 °F /  16.3 °C 30 in /  1015.8 hPa ESE 12.7 mph /  20.4 km/h 12.7 mph /  20.4 km/h 53 % 0 in /  0.0 mm
19:25 80.1 °F /  26.7 °C 61.3 °F /  16.3 °C 30 in /  1015.8 hPa ESE 5.8 mph /  9.3 km/h 5.8 mph /  9.3 km/h 53 % 0 in /  0.0 mm
19:30 79.7 °F /  26.5 °C 61.2 °F /  16.2 °C 30 in /  1015.8 hPa ENE 8.1 mph /  13.0 km/h 8.1 mph /  13.0 km/h 53 % 0 in /  0.0 mm
19:35 79.9 °F /  26.6 °C 61.2 °F /  16.2 °C 30 in /  1015.8 hPa SSE 5.8 mph /  9.3 km/h 5.8 mph /  9.3 km/h 53 % 0 in /  0.0 mm
19:40 79.5 °F /  26.4 °C 61.3 °F /  16.3 °C 30 in /  1015.8 hPa ESE 6.2 mph /  10.0 km/h 6.2 mph /  10.0 km/h 54 % 0 in /  0.0 mm
19:45 79.5 °F /  26.4 °C 61.3 °F /  16.3 °C 30 in /  1015.8 hPa North 4.6 mph /  7.4 km/h 4.6 mph /  7.4 km/h 54 % 0 in /  0.0 mm
19:50 79.3 °F /  26.3 °C 61.2 °F /  16.2 °C 30 in /  1015.8 hPa ESE 5.8 mph /  9.3 km/h 5.8 mph /  9.3 km/h 54 % 0 in /  0.0 mm
19:55 79.2 °F /  26.2 °C 61.2 °F /  16.2 °C 30 in /  1015.8 hPa ENE 5.8 mph /  9.3 km/h 5.8 mph /  9.3 km/h 54 % 0 in /  0.0 mm
20:00 79.2 °F /  26.2 °C 61.2 °F /  16.2 °C 30 in /  1015.8 hPa NE 4.6 mph /  7.4 km/h 4.6 mph /  7.4 km/h 54 % 0 in /  0.0 mm
20:05 79 °F /  26.1 °C 61 °F /  16.1 °C 30 in /  1015.8 hPa NE 5.8 mph /  9.3 km/h 5.8 mph /  9.3 km/h 54 % 0 in /  0.0 mm
20:10 78.8 °F /  26.0 °C 61.3 °F /  16.3 °C 30 in /  1015.8 hPa East 7.1 mph /  11.4 km/h 7.1 mph /  11.4 km/h 55 % 0 in /  0.0 mm
20:15 78.6 °F /  25.9 °C 61.2 °F /  16.2 °C 30 in /  1015.8 hPa ENE 5.8 mph /  9.3 km/h 5.8 mph /  9.3 km/h 55 % 0 in /  0.0 mm
20:20 78.6 °F /  25.9 °C 61.2 °F /  16.2 °C 30 in /  1015.8 hPa ENE 4.6 mph /  7.4 km/h 4.6 mph /  7.4 km/h 55 % 0 in /  0.0 mm
20:25 78.3 °F /  25.7 °C 60.8 °F /  16.0 °C 30 in /  1015.8 hPa ESE 5.9 mph /  9.5 km/h 5.9 mph /  9.5 km/h 55 % 0 in /  0.0 mm
20:30 78.1 °F /  25.6 °C 61.2 °F /  16.2 °C 30 in /  1015.8 hPa ESE 4.6 mph /  7.4 km/h 4.6 mph /  7.4 km/h 56 % 0 in /  0.0 mm
20:35 78.1 °F /  25.6 °C 61.2 °F /  16.2 °C 30 in /  1015.8 hPa NE 5.8 mph /  9.3 km/h 5.8 mph /  9.3 km/h 56 % 0 in /  0.0 mm
20:40 77.7 °F /  25.4 °C 61.3 °F /  16.3 °C 30 in /  1015.8 hPa ESE 5.8 mph /  9.3 km/h 5.8 mph /  9.3 km/h 57 % 0 in /  0.0 mm
20:45 77.4 °F /  25.2 °C 61 °F /  16.1 °C 30 in /  1016.8 hPa East 4.9 mph /  7.9 km/h 4.9 mph /  7.9 km/h 57 % 0 in /  0.0 mm
20:50 77.2 °F /  25.1 °C 60.8 °F /  16.0 °C 30 in /  1016.8 hPa ENE 6.9 mph /  11.1 km/h 6.9 mph /  11.1 km/h 57 % 0 in /  0.0 mm
20:55 77 °F /  25.0 °C 60.6 °F /  15.9 °C 30 in /  1016.8 hPa East 5.8 mph /  9.3 km/h 5.8 mph /  9.3 km/h 57 % 0 in /  0.0 mm
21:00 76.8 °F /  24.9 °C 61 °F /  16.1 °C 30 in /  1016.8 hPa ESE 6.9 mph /  11.1 km/h 6.9 mph /  11.1 km/h 58 % 0 in /  0.0 mm
21:05 76.6 °F /  24.8 °C 60.8 °F /  16.0 °C 30 in /  1016.8 hPa ESE 5.9 mph /  9.5 km/h 5.9 mph /  9.5 km/h 58 % 0 in /  0.0 mm
21:10 76.5 °F /  24.7 °C 61.2 °F /  16.2 °C 30 in /  1016.8 hPa East 5.8 mph /  9.3 km/h 5.8 mph /  9.3 km/h 59 % 0 in /  0.0 mm
21:15 76.3 °F /  24.6 °C 61.3 °F /  16.3 °C 30 in /  1016.8 hPa NNE 4.6 mph /  7.4 km/h 4.6 mph /  7.4 km/h 60 % 0 in /  0.0 mm
21:20 76.1 °F /  24.5 °C 61.2 °F /  16.2 °C 30 in /  1016.8 hPa ESE 4 mph /  6.4 km/h 4 mph /  6.4 km/h 60 % 0 in /  0.0 mm
21:25 75.7 °F /  24.3 °C 61 °F /  16.1 °C 30 in /  1016.8 hPa ENE 3.5 mph /  5.6 km/h 3.5 mph /  5.6 km/h 60 % 0 in /  0.0 mm
21:30 75.7 °F /  24.3 °C 61.3 °F /  16.3 °C 30.1 in /  1018.8 hPa ESE 3.5 mph /  5.6 km/h 3.5 mph /  5.6 km/h 61 % 0 in /  0.0 mm
21:31 75.7 °F /  24.3 °C 61.3 °F /  16.3 °C 30.1 in /  1018.8 hPa SE 3.5 mph /  5.6 km/h 3.5 mph /  5.6 km/h 61 % 0 in /  0.0 mm
21:36 75.6 °F /  24.2 °C 61.2 °F /  16.2 °C 30.1 in /  1018.8 hPa ESE 5.6 mph /  9.0 km/h 5.6 mph /  9.0 km/h 61 % 0 in /  0.0 mm
21:41 75.6 °F /  24.2 °C 61.5 °F /  16.4 °C 30.1 in /  1018.8 hPa East 2.4 mph /  3.9 km/h 2.4 mph /  3.9 km/h 62 % 0 in /  0.0 mm
21:46 75.4 °F /  24.1 °C 61.5 °F /  16.4 °C 30.1 in /  1017.8 hPa NNE 3.5 mph /  5.6 km/h 3.5 mph /  5.6 km/h 62 % 0 in /  0.0 mm
21:51 75.4 °F /  24.1 °C 61.5 °F /  16.4 °C 30.1 in /  1017.8 hPa ENE 3.5 mph /  5.6 km/h 3.5 mph /  5.6 km/h 62 % 0 in /  0.0 mm
21:56 75.2 °F /  24.0 °C 60.8 °F /  16.0 °C 30.1 in /  1017.8 hPa East 3.5 mph /  5.6 km/h 3.5 mph /  5.6 km/h 61 % 0 in /  0.0 mm
22:01 75.2 °F /  24.0 °C 61.3 °F /  16.3 °C 30 in /  1016.8 hPa ESE 2.3 mph /  3.7 km/h 2.3 mph /  3.7 km/h 62 % 0 in /  0.0 mm
22:06 75.2 °F /  24.0 °C 60.8 °F /  16.0 °C 30 in /  1016.8 hPa ESE 3.5 mph /  5.6 km/h 3.5 mph /  5.6 km/h 61 % 0 in /  0.0 mm
22:11 75 °F /  23.9 °C 61.2 °F /  16.2 °C 30 in /  1016.8 hPa NE 2.3 mph /  3.7 km/h 2.3 mph /  3.7 km/h 62 % 0 in /  0.0 mm
22:16 74.8 °F /  23.8 °C 61.3 °F /  16.3 °C 30.1 in /  1017.8 hPa Calm     63 % 0 in /  0.0 mm
22:21 74.8 °F /  23.8 °C 61.3 °F /  16.3 °C 30.1 in /  1017.8 hPa East 2.3 mph /  3.7 km/h 2.3 mph /  3.7 km/h 63 % 0 in /  0.0 mm
22:26 74.7 °F /  23.7 °C 61.2 °F /  16.2 °C 30.1 in /  1017.8 hPa ESE 2.3 mph /  3.7 km/h 2.3 mph /  3.7 km/h 63 % 0 in /  0.0 mm
22:31 74.5 °F /  23.6 °C 61.2 °F /  16.2 °C 30.1 in /  1017.8 hPa ENE 1.2 mph /  1.9 km/h 1.2 mph /  1.9 km/h 63 % 0 in /  0.0 mm
22:32 74.5 °F /  23.6 °C 61.2 °F /  16.2 °C 30.1 in /  1017.8 hPa NE 2.3 mph /  3.7 km/h 2.3 mph /  3.7 km/h 63 % 0 in /  0.0 mm
22:37 74.5 °F /  23.6 °C 61.2 °F /  16.2 °C 30.1 in /  1017.8 hPa NNE 2.3 mph /  3.7 km/h 2.3 mph /  3.7 km/h 63 % 0 in /  0.0 mm
22:42 74.5 °F /  23.6 °C 60.6 °F /  15.9 °C 30.1 in /  1017.8 hPa NE 1.2 mph /  1.9 km/h   62 % 0 in /  0.0 mm
22:47 74.3 °F /  23.5 °C 60.4 °F /  15.8 °C 30.1 in /  1017.8 hPa Calm     62 % 0 in /  0.0 mm
22:52 74.3 °F /  23.5 °C 60.4 °F /  15.8 °C 30.1 in /  1017.8 hPa NE 1.2 mph /  1.9 km/h   62 % 0 in /  0.0 mm
22:57 74.3 °F /  23.5 °C 60.1 °F /  15.6 °C 30.1 in /  1017.8 hPa ENE 2.3 mph /  3.7 km/h 2.3 mph /  3.7 km/h 61 % 0 in /  0.0 mm
23:02 74.1 °F /  23.4 °C 59.7 °F /  15.4 °C 30.1 in /  1017.8 hPa Calm     61 % 0 in /  0.0 mm
23:07 73.9 °F /  23.3 °C 59.5 °F /  15.3 °C 30.1 in /  1017.8 hPa Calm     61 % 0 in /  0.0 mm
23:12 73.9 °F /  23.3 °C 59.5 °F /  15.3 °C 30.1 in /  1017.8 hPa Calm     61 % 0 in /  0.0 mm
23:17 73.8 °F /  23.2 °C 59 °F /  15.0 °C 30.1 in /  1017.8 hPa Calm     60 % 0 in /  0.0 mm
23:22 73.6 °F /  23.1 °C 58.8 °F /  14.9 °C 30.1 in /  1017.8 hPa NNW 1.2 mph /  1.9 km/h   60 % 0 in /  0.0 mm
23:27 73.4 °F /  23.0 °C 58.6 °F /  14.8 °C 30.1 in /  1017.8 hPa Calm     60 % 0 in /  0.0 mm
23:32 73.4 °F /  23.0 °C 58.6 °F /  14.8 °C 30.1 in /  1017.8 hPa NNE 1.2 mph /  1.9 km/h   60 % 0 in /  0.0 mm
23:37 73.4 °F /  23.0 °C 58.6 °F /  14.8 °C 30.1 in /  1017.8 hPa NNE 1.2 mph /  1.9 km/h   60 % 0 in /  0.0 mm
23:42 73.2 °F /  22.9 °C 58.5 °F /  14.7 °C 30.1 in /  1017.8 hPa NW 1.2 mph /  1.9 km/h   60 % 0 in /  0.0 mm
23:47 73.2 °F /  22.9 °C 58.5 °F /  14.7 °C 30.1 in /  1017.8 hPa West 1.2 mph /  1.9 km/h 1.2 mph /  1.9 km/h 60 % 0 in /  0.0 mm
23:52 73.2 °F /  22.9 °C 58.5 °F /  14.7 °C 30.1 in /  1017.8 hPa Calm     60 % 0 in /  0.0 mm
23:57 73 °F /  22.8 °C 58.3 °F /  14.6 °C 30.1 in /  1017.8 hPa NNW 1.2 mph /  1.9 km/h   60 % 0 in /  0.0 mm
Meteo Sesrovires
Elogis d' Weather Underground - 3.5 mb

Guio original per  Jim McMurry - jmcmurry@mwt.net Adaptat per a la plantilla per  Wim van der Kuil - Leuven-Template.eu

Trobareu la nostra informacio del temps tambe a:

Weather Underground

AWEKAS